Time;durP1;ratioP1;P1;durP2;ratioP2;P2;SDS_P1;SDS_P2;PMS_P1;PMS_P2;Temp;Humidity;BMP_temperature;BMP_pressure;BME280_temperature;BME280_humidity;BME280_pressure;Samples;Min_cycle;Max_cycle;Signal;HPM_P1;HPM_P2
2023/12/26 00:01:11;;;;;;;1.38;0.70;;;9.60;99.90;;;;;;5054624;28;20032;-77
2023/12/26 00:03:37;;;;;;;0.75;0.60;;;9.60;99.90;;;;;;5062621;28;20377;-78
2023/12/26 00:06:03;;;;;;;0.75;0.55;;;9.60;99.90;;;;;;5069261;28;20028;-78
2023/12/26 00:08:29;;;;;;;0.98;0.60;;;9.60;99.90;;;;;;5072382;28;20039;-77
2023/12/26 00:10:55;;;;;;;0.95;0.43;;;9.60;99.90;;;;;;5070453;28;20062;-77
2023/12/26 00:13:21;;;;;;;0.68;0.50;;;9.60;99.90;;;;;;5076138;28;20036;-78
2023/12/26 00:15:47;;;;;;;1.75;0.90;;;9.70;99.90;;;;;;5061099;28;20150;-78
2023/12/26 00:18:13;;;;;;;0.93;0.40;;;9.70;99.90;;;;;;5061180;28;20067;-78
2023/12/26 00:20:43;;;;;;;2.50;0.85;;;9.70;99.90;;;;;;5074114;28;20032;-77
2023/12/26 00:23:09;;;;;;;0.95;0.40;;;9.70;99.90;;;;;;5073766;28;20040;-77
2023/12/26 00:25:35;;;;;;;0.50;0.30;;;9.70;99.90;;;;;;5074251;28;20074;-77
2023/12/26 00:28:01;;;;;;;0.68;0.52;;;9.80;99.90;;;;;;5087844;28;20075;-76
2023/12/26 00:30:26;;;;;;;0.60;0.43;;;9.80;99.90;;;;;;5073846;28;20051;-77
2023/12/26 00:32:53;;;;;;;0.30;0.30;;;9.80;99.90;;;;;;5073261;28;20040;-77
2023/12/26 00:35:18;;;;;;;1.35;0.47;;;9.80;99.90;;;;;;5073784;28;20501;-77
2023/12/26 00:37:44;;;;;;;1.17;0.30;;;9.90;99.90;;;;;;5082756;27;20031;-77
2023/12/26 00:40:12;;;;;;;0.52;0.30;;;9.90;99.90;;;;;;5063511;28;20028;-77
2023/12/26 00:42:39;;;;;;;0.25;0.20;;;9.90;99.90;;;;;;5088001;28;20041;-76
2023/12/26 00:45:06;;;;;;;0.35;0.17;;;9.80;99.90;;;;;;5074723;28;20036;-76
2023/12/26 00:47:32;;;;;;;2.00;0.57;;;9.90;99.90;;;;;;5078151;28;20036;-76
2023/12/26 00:49:59;;;;;;;0.57;0.20;;;9.90;99.90;;;;;;5072970;28;20455;-76
2023/12/26 00:52:25;;;;;;;0.15;0.15;;;9.90;99.90;;;;;;5075697;28;21005;-77
2023/12/26 00:54:52;;;;;;;0.20;0.10;;;9.90;99.90;;;;;;5087369;28;20076;-77
2023/12/26 00:57:18;;;;;;;0.28;0.28;;;9.90;99.90;;;;;;5078099;28;20036;-77
2023/12/26 00:59:45;;;;;;;0.38;0.20;;;9.90;99.90;;;;;;5084728;28;20089;-77
2023/12/26 01:02:11;;;;;;;0.03;0.03;;;9.80;99.90;;;;;;5058187;28;20040;-77
2023/12/26 01:04:36;;;;;;;0.38;0.30;;;9.80;99.90;;;;;;5073170;28;20135;-77
2023/12/26 01:07:02;;;;;;;0.38;0.20;;;9.80;99.90;;;;;;5077473;28;20410;-77
2023/12/26 01:09:28;;;;;;;0.30;0.10;;;9.80;99.90;;;;;;5091115;28;20085;-77
2023/12/26 01:11:54;;;;;;;2.30;0.40;;;9.70;99.90;;;;;;5077256;28;20036;-77
2023/12/26 01:14:20;;;;;;;2.90;0.32;;;9.70;99.90;;;;;;5084983;28;20494;-77
2023/12/26 01:16:46;;;;;;;0.50;0.20;;;9.70;99.90;;;;;;5077498;28;20036;-77
2023/12/26 01:19:13;;;;;;;0.65;0.40;;;9.60;99.90;;;;;;5085039;28;20528;-77
2023/12/26 01:21:39;;;;;;;1.00;0.55;;;9.60;99.90;;;;;;5078992;28;20039;-77
2023/12/26 01:24:05;;;;;;;0.28;0.17;;;9.60;99.90;;;;;;5060410;28;20119;-77
2023/12/26 01:26:32;;;;;;;0.43;0.13;;;9.60;99.90;;;;;;5081137;28;20047;-77
2023/12/26 01:28:58;;;;;;;2.85;0.50;;;9.60;99.90;;;;;;5087491;28;20044;-77
2023/12/26 01:31:24;;;;;;;1.02;0.82;;;9.50;99.90;;;;;;5096791;28;20119;-77
2023/12/26 01:33:51;;;;;;;2.92;0.47;;;9.50;99.90;;;;;;5097225;27;20027;-77
2023/12/26 01:36:17;;;;;;;0.30;0.20;;;9.50;99.90;;;;;;5080512;28;20067;-77
2023/12/26 01:38:43;;;;;;;0.57;0.13;;;9.50;99.90;;;;;;5066721;28;20078;-77
2023/12/26 01:41:09;;;;;;;0.70;0.20;;;9.50;99.90;;;;;;5080473;28;20085;-77
2023/12/26 01:43:35;;;;;;;2.45;0.50;;;9.50;99.90;;;;;;5076954;28;20028;-77
2023/12/26 01:46:02;;;;;;;0.38;0.13;;;9.50;99.90;;;;;;5095695;28;20627;-77
2023/12/26 01:48:30;;;;;;;1.95;0.65;;;9.50;99.90;;;;;;5096418;28;20039;-77
2023/12/26 01:51:00;;;;;;;2.33;0.85;;;9.60;99.90;;;;;;5092127;28;20421;-77
2023/12/26 01:53:26;;;;;;;2.08;0.38;;;9.60;99.90;;;;;;5060091;28;20058;-77
2023/12/26 01:55:52;;;;;;;1.83;0.47;;;9.50;99.90;;;;;;5083771;28;20093;-77
2023/12/26 01:58:19;;;;;;;4.18;0.68;;;9.50;99.90;;;;;;5064244;28;20032;-77
2023/12/26 02:00:44;;;;;;;4.03;0.70;;;9.60;99.90;;;;;;5080308;28;20040;-77
2023/12/26 02:03:10;;;;;;;0.30;0.30;;;9.60;99.90;;;;;;5080546;28;20123;-77
2023/12/26 02:05:38;;;;;;;2.05;0.73;;;9.60;99.90;;;;;;5077651;28;20390;-77
2023/12/26 02:08:04;;;;;;;3.03;0.45;;;9.60;99.90;;;;;;5076268;28;20039;-77
2023/12/26 02:10:30;;;;;;;2.85;0.95;;;9.60;99.90;;;;;;5080638;28;20050;-77
2023/12/26 02:12:56;;;;;;;1.77;0.65;;;9.60;99.90;;;;;;5063484;28;20048;-77
2023/12/26 02:15:22;;;;;;;2.20;0.30;;;9.60;99.90;;;;;;5060018;28;20394;-77
2023/12/26 02:17:48;;;;;;;2.83;0.57;;;9.60;99.90;;;;;;5056139;28;20519;-77
2023/12/26 02:20:14;;;;;;;4.72;0.80;;;9.50;99.90;;;;;;5072568;28;20111;-77
2023/12/26 02:22:39;;;;;;;5.18;0.60;;;9.50;99.90;;;;;;5076507;28;20074;-78
2023/12/26 02:25:08;;;;;;;0.98;0.45;;;9.50;99.90;;;;;;5072868;28;20044;-76
2023/12/26 02:27:36;;;;;;;3.05;0.80;;;9.50;99.90;;;;;;5072640;28;20052;-76
2023/12/26 02:30:05;;;;;;;3.30;0.40;;;9.40;99.90;;;;;;5074136;28;20470;-77
2023/12/26 02:32:34;;;;;;;1.23;1.02;;;9.40;99.90;;;;;;5058662;28;20047;-77
2023/12/26 02:35:02;;;;;;;0.37;0.20;;;9.40;99.90;;;;;;5055939;28;20037;-77
2023/12/26 02:37:29;;;;;;;1.92;0.90;;;9.50;99.90;;;;;;5077590;28;20052;-77
2023/12/26 02:39:55;;;;;;;0.82;0.47;;;9.50;99.90;;;;;;5085372;28;20036;-77
2023/12/26 02:42:22;;;;;;;3.33;0.80;;;9.50;99.90;;;;;;5064061;28;20097;-77
2023/12/26 02:44:47;;;;;;;3.95;0.40;;;9.50;99.90;;;;;;5060916;28;20040;-77
2023/12/26 02:47:14;;;;;;;3.58;0.40;;;9.50;99.90;;;;;;5055827;28;20037;-76
2023/12/26 02:49:40;;;;;;;5.50;0.55;;;9.60;99.90;;;;;;5072007;28;20036;-77
2023/12/26 02:52:06;;;;;;;0.70;0.52;;;9.60;99.90;;;;;;5055966;28;20044;-77
2023/12/26 02:54:32;;;;;;;1.13;0.40;;;9.60;99.90;;;;;;5055376;28;20398;-77
2023/12/26 02:56:58;;;;;;;11.38;0.82;;;9.60;99.90;;;;;;5072305;28;20451;-77
2023/12/26 02:59:24;;;;;;;4.95;0.75;;;9.60;99.90;;;;;;5059027;28;20043;-77
2023/12/26 03:01:49;;;;;;;1.02;0.30;;;9.70;99.90;;;;;;5061504;28;20044;-77
2023/12/26 03:04:15;;;;;;;2.65;0.95;;;9.70;99.90;;;;;;5057435;28;20111;-77
2023/12/26 03:06:41;;;;;;;2.85;0.35;;;9.60;99.90;;;;;;5071714;28;20517;-77
2023/12/26 03:09:08;;;;;;;0.40;0.30;;;9.10;99.90;;;;;;5074607;28;20052;-77
2023/12/26 03:11:33;;;;;;;0.10;0.10;;;8.50;99.90;;;;;;5074545;28;20075;-76
2023/12/26 03:14:00;;;;;;;2.00;0.35;;;8.20;99.90;;;;;;5076393;28;20095;-77
2023/12/26 03:16:26;;;;;;;0.10;0.10;;;8.10;99.90;;;;;;5054704;28;20518;-77
2023/12/26 03:18:52;;;;;;;0.77;0.38;;;8.10;99.90;;;;;;5078216;28;20174;-76
2023/12/26 03:21:17;;;;;;;4.05;0.80;;;8.10;99.90;;;;;;5072893;28;20067;-76
2023/12/26 03:23:43;;;;;;;0.88;0.30;;;8.20;99.90;;;;;;5079848;28;20045;-76
2023/12/26 03:26:09;;;;;;;3.00;0.30;;;8.20;99.90;;;;;;5072104;28;20058;-77
2023/12/26 03:28:35;;;;;;;2.17;0.20;;;8.20;99.90;;;;;;5094168;28;20123;-77
2023/12/26 03:31:05;;;;;;;1.20;0.20;;;8.20;99.90;;;;;;5072979;28;20055;-77
2023/12/26 03:33:31;;;;;;;1.77;0.93;;;8.20;99.90;;;;;;5091092;28;20409;-77
2023/12/26 03:35:57;;;;;;;5.10;0.77;;;8.20;99.90;;;;;;5090995;28;20036;-77
2023/12/26 03:38:23;;;;;;;0.68;0.50;;;8.20;99.90;;;;;;5062905;28;20037;-77
2023/12/26 03:40:49;;;;;;;3.95;0.80;;;8.30;99.90;;;;;;5077615;28;20465;-77
2023/12/26 03:43:16;;;;;;;4.55;0.90;;;8.30;99.90;;;;;;5065753;28;20040;-77
2023/12/26 03:45:43;;;;;;;1.63;0.40;;;8.40;99.90;;;;;;5057271;28;20041;-77
2023/12/26 03:48:09;;;;;;;2.75;0.50;;;8.40;99.90;;;;;;5070977;28;20509;-77
2023/12/26 03:50:35;;;;;;;0.63;0.45;;;8.40;99.90;;;;;;5071060;28;20041;-77
2023/12/26 03:53:01;;;;;;;4.15;0.50;;;8.40;99.90;;;;;;5069747;28;20085;-77
2023/12/26 03:55:27;;;;;;;5.90;0.57;;;8.30;99.90;;;;;;5078730;28;20036;-77
2023/12/26 03:57:52;;;;;;;3.42;0.73;;;8.30;99.90;;;;;;5075596;28;20106;-77
2023/12/26 04:00:18;;;;;;;3.22;0.75;;;8.30;99.90;;;;;;5084888;28;20032;-77
2023/12/26 04:02:44;;;;;;;6.97;0.80;;;8.20;99.90;;;;;;5054187;28;20036;-77
2023/12/26 04:05:10;;;;;;;8.50;0.70;;;8.20;99.90;;;;;;5054210;28;20036;-77
2023/12/26 04:07:37;;;;;;;2.72;0.38;;;8.20;99.90;;;;;;5054159;28;20037;-77
2023/12/26 04:10:03;;;;;;;3.70;1.73;;;8.20;99.90;;;;;;5073314;28;20044;-77
2023/12/26 04:12:29;;;;;;;3.00;0.50;;;8.20;99.90;;;;;;5070546;28;20033;-76
2023/12/26 04:14:55;;;;;;;7.03;1.20;;;8.10;99.90;;;;;;5055245;28;20402;-76
2023/12/26 04:17:21;;;;;;;3.72;0.82;;;8.10;99.90;;;;;;5059604;28;20036;-76
2023/12/26 04:19:48;;;;;;;4.60;1.10;;;8.00;99.90;;;;;;5056110;28;20032;-76
2023/12/26 04:22:14;;;;;;;6.50;1.17;;;8.00;99.90;;;;;;5067439;28;20543;-76
2023/12/26 04:24:40;;;;;;;8.75;1.30;;;8.00;99.90;;;;;;5091732;28;20035;-77
2023/12/26 04:27:06;;;;;;;3.95;1.15;;;7.90;99.90;;;;;;5073089;28;20039;-77
2023/12/26 04:29:32;;;;;;;6.38;0.85;;;7.90;99.90;;;;;;5090553;28;20086;-77
2023/12/26 04:31:58;;;;;;;3.80;0.65;;;7.90;99.90;;;;;;5062695;28;20449;-77
2023/12/26 04:34:24;;;;;;;3.92;0.70;;;7.90;99.90;;;;;;5070457;28;20075;-77
2023/12/26 04:36:50;;;;;;;6.55;0.98;;;7.90;99.90;;;;;;5061713;28;20477;-77
2023/12/26 04:39:16;;;;;;;5.30;0.55;;;7.90;99.90;;;;;;5063371;28;20073;-78
2023/12/26 04:41:42;;;;;;;0.47;0.40;;;7.90;99.90;;;;;;5074412;28;20037;-77
2023/12/26 04:44:07;;;;;;;1.65;0.45;;;7.90;99.90;;;;;;5073150;28;20098;-77
2023/12/26 04:46:33;;;;;;;4.05;0.50;;;8.00;99.90;;;;;;5070233;28;20029;-77
2023/12/26 04:48:59;;;;;;;0.95;0.50;;;8.00;99.90;;;;;;5072518;28;20040;-77
2023/12/26 04:51:28;;;;;;;0.25;0.15;;;8.00;99.90;;;;;;5089987;28;20039;-77
2023/12/26 04:53:54;;;;;;;4.60;0.80;;;8.00;99.90;;;;;;5068521;28;20039;-77
2023/12/26 04:56:21;;;;;;;2.85;0.52;;;8.10;99.90;;;;;;5075943;28;20433;-77
2023/12/26 04:58:51;;;;;;;4.50;0.68;;;8.10;99.90;;;;;;5057337;28;20485;-78
2023/12/26 05:01:18;;;;;;;1.60;0.55;;;8.20;99.90;;;;;;5078742;28;20040;-77
2023/12/26 05:03:45;;;;;;;2.72;0.55;;;8.20;99.90;;;;;;5072965;28;20059;-77
2023/12/26 05:06:11;;;;;;;2.65;0.63;;;8.30;99.90;;;;;;5072463;28;20040;-77
2023/12/26 05:08:38;;;;;;;6.20;0.65;;;8.40;99.90;;;;;;5053765;28;20496;-77
2023/12/26 05:11:05;;;;;;;4.97;0.60;;;8.40;99.90;;;;;;5085525;28;20040;-77
2023/12/26 05:13:32;;;;;;;1.25;0.63;;;8.50;99.90;;;;;;5087395;28;20067;-77
2023/12/26 05:16:02;;;;;;;1.95;0.80;;;8.50;99.90;;;;;;5071321;28;20037;-77
2023/12/26 05:18:27;;;;;;;;;;;8.60;99.90;;;;;;5074299;28;20045;-77
2023/12/26 05:20:53;;;;;;;2.33;0.75;;;8.60;99.90;;;;;;5074350;28;19942;-77
2023/12/26 05:23:19;;;;;;;1.65;1.25;;;8.70;99.90;;;;;;5087003;28;20043;-77
2023/12/26 05:25:45;;;;;;;5.95;0.77;;;8.70;99.90;;;;;;5055144;28;20028;-76
2023/12/26 05:28:11;;;;;;;2.67;0.93;;;8.80;99.90;;;;;;5065991;28;20036;-76
2023/12/26 05:30:37;;;;;;;4.50;0.70;;;8.80;99.90;;;;;;5072037;28;20384;-77
2023/12/26 05:33:03;;;;;;;2.85;1.02;;;8.80;99.90;;;;;;5061117;28;20037;-77
2023/12/26 05:35:28;;;;;;;1.05;0.68;;;8.90;99.90;;;;;;5070418;28;20483;-77
2023/12/26 05:37:54;;;;;;;5.35;0.88;;;8.90;99.90;;;;;;5075922;28;20044;-77
2023/12/26 05:40:20;;;;;;;1.98;1.23;;;8.90;99.90;;;;;;5070557;28;20039;-77
2023/12/26 05:42:49;;;;;;;0.88;0.43;;;9.00;99.90;;;;;;5073559;28;20068;-77
2023/12/26 05:45:16;;;;;;;12.33;1.17;;;8.90;99.90;;;;;;5071945;28;20123;-76
2023/12/26 05:47:43;;;;;;;2.53;0.65;;;9.00;99.90;;;;;;5069860;28;20041;-77
2023/12/26 05:50:09;;;;;;;1.10;0.50;;;9.00;99.90;;;;;;5069577;28;20036;-77
2023/12/26 05:52:35;;;;;;;4.32;0.60;;;9.00;99.90;;;;;;5060545;28;20044;-77
2023/12/26 05:55:01;;;;;;;0.73;0.40;;;9.00;99.90;;;;;;5058031;28;20150;-77
2023/12/26 05:57:27;;;;;;;7.85;1.00;;;8.90;99.90;;;;;;5079877;28;20043;-77
2023/12/26 05:59:53;;;;;;;3.50;0.90;;;9.00;99.90;;;;;;5062942;28;20170;-77
2023/12/26 06:02:19;;;;;;;5.82;0.90;;;9.00;99.90;;;;;;5056816;28;20032;-77
2023/12/26 06:04:45;;;;;;;7.65;1.08;;;9.00;99.90;;;;;;5072914;28;20402;-77
2023/12/26 06:07:11;;;;;;;2.90;0.70;;;9.00;99.90;;;;;;5073006;28;20032;-77
2023/12/26 06:09:38;;;;;;;8.32;0.52;;;9.00;99.90;;;;;;5056748;28;20083;-77
2023/12/26 06:12:05;;;;;;;0.65;0.40;;;9.00;99.90;;;;;;5090434;28;20482;-77
2023/12/26 06:14:30;;;;;;;4.07;0.47;;;9.00;99.90;;;;;;5069121;28;20438;-77
2023/12/26 06:16:57;;;;;;;3.25;0.40;;;8.90;99.90;;;;;;5053182;28;20049;-77
2023/12/26 06:19:23;;;;;;;7.78;0.55;;;8.90;99.90;;;;;;5058730;28;20040;-77
2023/12/26 06:21:49;;;;;;;4.00;1.58;;;8.80;99.90;;;;;;5052970;28;20135;-77
2023/12/26 06:24:14;;;;;;;8.70;1.65;;;8.70;99.90;;;;;;5072589;28;20064;-77
2023/12/26 06:26:40;;;;;;;9.10;1.58;;;8.70;99.90;;;;;;5071649;28;20052;-77
2023/12/26 06:29:06;;;;;;;9.18;1.15;;;8.60;99.90;;;;;;5069756;28;20047;-77
2023/12/26 06:31:32;;;;;;;2.78;0.70;;;8.60;99.90;;;;;;5052967;28;20057;-77
2023/12/26 06:33:58;;;;;;;3.50;0.57;;;8.60;99.90;;;;;;5035995;28;20040;-76
2023/12/26 06:36:27;;;;;;;1.15;0.60;;;8.60;99.90;;;;;;5053049;28;20068;-77
2023/12/26 06:38:56;;;;;;;7.13;1.00;;;8.60;99.90;;;;;;5053141;28;20040;-77
2023/12/26 06:41:21;;;;;;;3.58;0.70;;;8.60;99.90;;;;;;5056020;28;20425;-77
2023/12/26 06:43:47;;;;;;;3.92;1.27;;;8.60;99.90;;;;;;5067024;28;20042;-77
2023/12/26 06:46:14;;;;;;;6.13;0.63;;;8.60;99.90;;;;;;5052634;28;20029;-77
2023/12/26 06:48:40;;;;;;;2.53;0.77;;;8.60;99.90;;;;;;5054327;28;20063;-77
2023/12/26 06:51:06;;;;;;;10.68;0.95;;;8.60;99.90;;;;;;5052433;28;20048;-77
2023/12/26 06:53:32;;;;;;;5.72;1.17;;;8.60;99.90;;;;;;5055246;28;20475;-77
2023/12/26 06:55:58;;;;;;;0.57;0.52;;;8.60;99.90;;;;;;5055058;28;20418;-77
2023/12/26 06:58:23;;;;;;;6.65;1.15;;;8.50;99.90;;;;;;5055560;28;20040;-77
2023/12/26 07:00:49;;;;;;;4.60;1.05;;;8.50;99.90;;;;;;5052080;28;20033;-77
2023/12/26 07:03:43;;;;;;;0.55;0.35;;;8.50;99.90;;;;;;5054113;28;20479;-77
2023/12/26 07:06:12;;;;;;;4.35;0.70;;;8.50;99.90;;;;;;5056944;28;20036;-77
2023/12/26 07:08:41;;;;;;;1.10;0.50;;;8.40;99.90;;;;;;5044017;28;20238;-82
2023/12/26 07:11:06;;;;;;;6.00;1.80;;;8.40;99.90;;;;;;5053731;28;20566;-82
2023/12/26 07:13:32;;;;;;;12.25;1.13;;;8.40;99.90;;;;;;5065943;28;20110;-82
2023/12/26 07:15:58;;;;;;;2.83;1.00;;;8.30;99.90;;;;;;5091206;28;20048;-82
2023/12/26 07:18:24;;;;;;;9.02;1.40;;;8.30;99.90;;;;;;5092257;28;20111;-83
2023/12/26 07:20:50;;;;;;;2.40;1.00;;;8.40;99.90;;;;;;5071826;28;20386;-82
2023/12/26 07:23:15;;;;;;;6.43;1.30;;;8.40;99.90;;;;;;5087569;28;20578;-83
2023/12/26 07:25:42;;;;;;;1.58;0.60;;;8.50;99.90;;;;;;5091411;28;20047;-82
2023/12/26 07:28:10;;;;;;;1.95;0.60;;;8.50;99.90;;;;;;5091718;28;20035;-82
2023/12/26 07:30:38;;;;;;;8.23;0.57;;;8.50;99.90;;;;;;5091426;28;20527;-82
2023/12/26 07:33:04;;;;;;;2.70;0.50;;;8.40;99.90;;;;;;5090505;28;20063;-82
2023/12/26 07:35:30;;;;;;;3.67;0.82;;;8.40;99.90;;;;;;5090277;28;20486;-82
2023/12/26 07:37:56;;;;;;;12.18;1.63;;;8.40;99.90;;;;;;5086752;28;20040;-82
2023/12/26 07:40:22;;;;;;;1.92;0.63;;;8.40;99.90;;;;;;5077741;28;20040;-83
2023/12/26 07:42:48;;;;;;;7.95;1.58;;;8.40;99.90;;;;;;5071099;28;20075;-83
2023/12/26 07:45:14;;;;;;;3.20;1.00;;;8.40;99.90;;;;;;5080216;28;20051;-82
2023/12/26 07:47:41;;;;;;;3.17;1.42;;;8.40;99.90;;;;;;5071472;28;20135;-83
2023/12/26 07:50:07;;;;;;;4.03;0.90;;;8.40;99.90;;;;;;5072236;28;20132;-82
2023/12/26 07:52:32;;;;;;;2.10;1.15;;;8.30;99.90;;;;;;5073165;28;20037;-82
2023/12/26 07:54:58;;;;;;;2.83;0.90;;;8.30;99.90;;;;;;5072559;28;20556;-82
2023/12/26 07:57:24;;;;;;;2.80;0.63;;;8.20;99.90;;;;;;5086308;28;20031;-82
2023/12/26 07:59:50;;;;;;;5.90;0.77;;;8.20;99.90;;;;;;5075521;28;20080;-82
2023/12/26 08:02:16;;;;;;;7.07;1.90;;;8.20;99.90;;;;;;5077611;28;20067;-82
2023/12/26 08:04:41;;;;;;;4.93;1.13;;;8.20;99.90;;;;;;5080869;28;20044;-82
2023/12/26 08:07:08;;;;;;;7.43;1.70;;;8.20;99.90;;;;;;5070699;28;20098;-82
2023/12/26 08:09:34;;;;;;;6.75;2.60;;;8.10;99.90;;;;;;5071222;28;20041;-82
2023/12/26 08:12:00;;;;;;;9.13;1.70;;;8.20;99.90;;;;;;5071119;28;20111;-82
2023/12/26 08:14:26;;;;;;;5.22;2.03;;;8.20;99.90;;;;;;5071196;28;20057;-82
2023/12/26 08:16:52;;;;;;;3.35;1.80;;;8.20;99.90;;;;;;5074469;28;20098;-82
2023/12/26 08:19:18;;;;;;;2.35;1.67;;;8.10;99.90;;;;;;5082720;28;20524;-82
2023/12/26 08:21:43;;;;;;;7.00;1.42;;;8.20;99.90;;;;;;5075993;28;20524;-82
2023/12/26 08:24:09;;;;;;;4.72;1.02;;;8.20;99.90;;;;;;5075075;28;20123;-82
2023/12/26 08:26:35;;;;;;;4.28;2.08;;;8.30;99.90;;;;;;5070422;28;20039;-82
2023/12/26 08:29:01;;;;;;;5.80;1.10;;;8.30;99.90;;;;;;5070502;28;20091;-82
2023/12/26 08:31:27;;;;;;;3.08;0.88;;;8.30;99.90;;;;;;5077687;28;20631;-82
2023/12/26 08:33:53;;;;;;;7.13;1.05;;;8.30;99.90;;;;;;5079729;28;20040;-82
2023/12/26 08:36:18;;;;;;;3.67;1.52;;;8.30;99.90;;;;;;5077083;28;20028;-83
2023/12/26 08:38:44;;;;;;;6.88;0.65;;;8.30;99.90;;;;;;5081322;28;20032;-82
2023/12/26 08:41:12;;;;;;;5.47;0.95;;;8.40;99.90;;;;;;5071040;28;20456;-83
2023/12/26 08:43:38;;;;;;;4.30;0.85;;;8.40;99.90;;;;;;5072476;28;20048;-83
2023/12/26 08:46:04;;;;;;;5.70;1.83;;;8.40;99.90;;;;;;5070641;28;20509;-83
2023/12/26 08:48:30;;;;;;;7.63;2.78;;;8.50;99.90;;;;;;5070918;28;20041;-83
2023/12/26 08:50:55;;;;;;;7.70;2.55;;;8.60;99.90;;;;;;5075276;28;20533;-83
2023/12/26 08:53:21;;;;;;;9.00;2.60;;;8.70;99.90;;;;;;5082683;28;20051;-83
2023/12/26 08:55:47;;;;;;;12.98;2.90;;;8.90;99.90;;;;;;5082459;28;20040;-83
2023/12/26 08:58:14;;;;;;;9.20;1.95;;;9.10;99.90;;;;;;5077389;28;20133;-83
2023/12/26 09:00:40;;;;;;;4.65;2.08;;;9.30;99.90;;;;;;5075377;28;20492;-83
2023/12/26 09:03:07;;;;;;;8.00;1.45;;;9.50;99.90;;;;;;5077775;28;20520;-83
2023/12/26 09:05:34;;;;;;;2.95;1.08;;;9.80;99.90;;;;;;5079552;28;20048;-83
2023/12/26 09:07:59;;;;;;;4.13;1.63;;;10.00;99.90;;;;;;5063668;28;20041;-83
2023/12/26 09:10:25;;;;;;;2.25;1.00;;;10.30;99.90;;;;;;5079182;28;20098;-83
2023/12/26 09:12:51;;;;;;;6.15;1.05;;;10.40;99.90;;;;;;5074971;28;20044;-82
2023/12/26 09:15:17;;;;;;;8.07;2.20;;;10.70;99.90;;;;;;5080826;28;20052;-82
2023/12/26 09:17:43;;;;;;;4.57;1.65;;;10.80;99.90;;;;;;5064399;28;20101;-82
2023/12/26 09:20:12;;;;;;;3.00;1.25;;;10.80;99.90;;;;;;5075733;28;20112;-83
2023/12/26 09:22:38;;;;;;;5.88;1.13;;;10.90;99.90;;;;;;5079046;28;20044;-83
2023/12/26 09:25:07;;;;;;;4.43;0.95;;;11.00;99.90;;;;;;5075809;28;20083;-83
2023/12/26 09:27:33;;;;;;;9.38;2.17;;;11.30;99.90;;;;;;5075085;28;20403;-82
2023/12/26 09:29:59;;;;;;;10.10;2.03;;;11.40;99.90;;;;;;5085480;28;20109;-82
2023/12/26 09:32:25;;;;;;;7.93;3.33;;;11.60;99.90;;;;;;5085525;28;20048;-82
2023/12/26 09:34:50;;;;;;;7.75;2.50;;;11.40;99.90;;;;;;5086314;28;20125;-80
2023/12/26 09:37:16;;;;;;;4.80;2.40;;;10.90;99.90;;;;;;5083907;28;20055;-79
2023/12/26 09:39:42;;;;;;;7.85;2.45;;;10.50;99.90;;;;;;5073425;28;20086;-82
2023/12/26 09:42:11;;;;;;;7.45;2.72;;;10.20;99.90;;;;;;5082999;28;20103;-82
2023/12/26 09:44:37;;;;;;;11.40;2.73;;;10.00;99.90;;;;;;5083667;28;20389;-80
2023/12/26 09:47:05;;;;;;;12.38;2.97;;;10.20;99.90;;;;;;5082579;28;20512;-79
2023/12/26 09:49:31;;;;;;;8.23;1.50;;;10.50;99.90;;;;;;5082351;28;20049;-79
2023/12/26 09:52:01;;;;;;;7.45;1.10;;;10.40;99.90;;;;;;5084079;28;20097;-79
2023/12/26 09:54:30;;;;;;;;;;;10.20;99.90;;;;;;5084018;28;20040;-79
2023/12/26 09:56:56;;;;;;;5.18;1.73;;;9.90;99.90;;;;;;5085483;28;19927;-79
2023/12/26 09:59:25;;;;;;;9.90;2.55;;;9.70;99.90;;;;;;5087697;28;20432;-79
2023/12/26 10:01:51;;;;;;;5.97;1.48;;;9.50;99.90;;;;;;5085156;28;20119;-79
2023/12/26 10:04:18;;;;;;;5.57;1.40;;;9.50;99.90;;;;;;5086199;28;20036;-79
2023/12/26 10:06:43;;;;;;;4.13;1.17;;;9.60;99.90;;;;;;5083411;28;20036;-79
2023/12/26 10:09:09;;;;;;;3.38;1.25;;;9.70;99.90;;;;;;5093666;28;20492;-78
2023/12/26 10:11:35;;;;;;;10.10;1.75;;;9.80;99.90;;;;;;5087657;28;20406;-79
2023/12/26 10:14:01;;;;;;;9.38;1.52;;;9.80;99.90;;;;;;5092345;28;20044;-79
2023/12/26 10:16:27;;;;;;;5.38;1.23;;;9.70;99.90;;;;;;5108000;28;20573;-80
2023/12/26 10:18:53;;;;;;;4.75;1.02;;;9.60;99.90;;;;;;5089905;28;20035;-80
2023/12/26 10:21:18;;;;;;;1.85;0.60;;;9.50;99.90;;;;;;5077439;28;21030;-79
2023/12/26 10:23:45;;;;;;;8.02;0.75;;;9.50;99.90;;;;;;5093341;28;20044;-82
2023/12/26 10:26:11;;;;;;;3.28;1.02;;;9.40;99.90;;;;;;5086845;28;20770;-80
2023/12/26 10:28:38;;;;;;;0.98;0.63;;;9.40;99.90;;;;;;5087929;28;20113;-79
2023/12/26 10:31:14;;;;;;;3.58;0.60;;;9.40;99.90;;;;;;5106762;28;20031;-79
2023/12/26 10:33:42;;;;;;;1.23;0.50;;;9.40;99.90;;;;;;5089955;28;20097;-79
2023/12/26 10:36:11;;;;;;;4.38;1.55;;;9.40;99.90;;;;;;5105972;28;20101;-79
2023/12/26 10:38:39;;;;;;;20.40;4.18;;;9.40;99.90;;;;;;5103563;28;20051;-79
2023/12/26 10:41:23;;;;;;;13.38;4.32;;;9.40;99.90;;;;;;5101009;28;20043;-78
2023/12/26 10:43:51;;;;;;;8.65;2.35;;;9.50;99.90;;;;;;5066260;28;20069;-77
2023/12/26 10:46:18;;;;;;;6.70;2.75;;;9.50;99.90;;;;;;5082952;28;20107;-76
2023/12/26 10:48:48;;;;;;;10.32;1.63;;;9.60;99.90;;;;;;5088134;28;20089;-78
2023/12/26 10:51:15;;;;;;;11.05;2.25;;;9.90;99.90;;;;;;5070694;28;20104;-77
2023/12/26 10:53:53;;;;;;;6.35;1.63;;;10.60;99.90;;;;;;5087115;28;20123;-77
2023/12/26 10:56:20;;;;;;;3.70;0.80;;;11.30;99.90;;;;;;5081712;28;20097;-76
2023/12/26 10:58:47;;;;;;;7.20;0.80;;;11.20;99.90;;;;;;5083581;28;20034;-77
2023/12/26 13:53:04;;;;;;;0.70;0.20;;;8.80;99.90;;;;;;5061912;28;20036;-79
2023/12/26 13:55:30;;;;;;;3.30;0.40;;;8.70;99.90;;;;;;5068025;28;20398;-79
2023/12/26 13:57:56;;;;;;;0.55;0.43;;;8.60;99.90;;;;;;5067976;28;20036;-80
2023/12/26 14:00:21;;;;;;;5.15;0.93;;;8.60;99.90;;;;;;5068835;28;20060;-81
2023/12/26 14:02:50;;;;;;;7.68;0.82;;;8.50;99.90;;;;;;5064799;28;20033;-83
2023/12/26 14:05:19;;;;;;;2.80;0.27;;;8.60;99.90;;;;;;5055195;28;20045;-79
2023/12/26 14:07:46;;;;;;;0.73;0.35;;;8.60;99.90;;;;;;5058619;28;20068;-79
2023/12/26 14:10:17;;;;;;;0.47;0.20;;;8.50;99.90;;;;;;5063931;28;20036;-79
2023/12/26 14:12:49;;;;;;;2.47;0.30;;;8.50;99.90;;;;;;5046455;28;20025;-81
2023/12/26 14:15:15;;;;;;;7.57;0.70;;;8.40;99.90;;;;;;5049551;28;20063;-78
2023/12/26 14:17:52;;;;;;;3.03;0.30;;;8.40;99.90;;;;;;5078358;28;20040;-78
2023/12/26 14:20:19;;;;;;;0.90;0.35;;;8.40;99.90;;;;;;5066455;28;20043;-78
2023/12/26 14:22:57;;;;;;;;;;;8.30;99.90;;;;;;5082242;28;20115;-77
2023/12/26 14:25:28;;;;;;;1.27;0.20;;;8.20;99.90;;;;;;5078150;28;20286;-77
2023/12/26 14:27:54;;;;;;;0.32;0.32;;;8.10;99.90;;;;;;5083382;28;20033;-77
2023/12/26 14:30:20;;;;;;;6.22;0.65;;;8.00;99.90;;;;;;5085439;28;20047;-78
2023/12/26 14:32:46;;;;;;;0.10;0.10;;;7.90;99.90;;;;;;5085183;28;20044;-77
2023/12/26 14:35:12;;;;;;;0.10;0.10;;;7.80;99.90;;;;;;5083935;28;20036;-77
2023/12/26 14:37:37;;;;;;;0.10;0.10;;;7.80;99.90;;;;;;5080337;28;20437;-76
2023/12/26 14:40:03;;;;;;;1.58;0.68;;;7.80;99.90;;;;;;5078862;28;20047;-76
2023/12/26 14:42:29;;;;;;;1.60;0.55;;;7.70;99.90;;;;;;5077342;28;20109;-76
2023/12/26 14:44:55;;;;;;;2.88;0.35;;;7.70;99.90;;;;;;5081396;28;20036;-77
2023/12/26 14:47:21;;;;;;;0.10;0.10;;;7.60;99.90;;;;;;5083482;28;20126;-77
2023/12/26 14:49:47;;;;;;;2.28;0.30;;;7.60;99.90;;;;;;5084343;28;20079;-77
2023/12/26 14:52:13;;;;;;;5.90;0.50;;;7.50;99.90;;;;;;5082372;28;20504;-76
2023/12/26 14:54:38;;;;;;;1.63;0.30;;;7.50;99.90;;;;;;5079794;28;20036;-77
2023/12/26 14:57:04;;;;;;;4.47;0.40;;;7.40;99.90;;;;;;5080368;28;20416;-77
2023/12/26 14:59:30;;;;;;;0.17;0.17;;;7.40;99.90;;;;;;5083442;28;20461;-76
2023/12/26 15:02:03;;;;;;;0.50;0.30;;;7.30;99.90;;;;;;5085671;28;20040;-76
2023/12/26 15:04:29;;;;;;;2.28;0.65;;;7.30;99.90;;;;;;5078535;28;20040;-76
2023/12/26 15:07:04;;;;;;;3.42;0.30;;;7.30;99.90;;;;;;5085270;28;20039;-77
2023/12/26 15:09:30;;;;;;;0.43;0.25;;;7.20;99.90;;;;;;5084736;28;20051;-76
2023/12/26 15:11:55;;;;;;;4.93;0.75;;;7.20;99.90;;;;;;5084938;28;20032;-76
2023/12/26 15:14:21;;;;;;;1.20;0.73;;;7.20;99.90;;;;;;5080580;28;20199;-76
2023/12/26 15:16:47;;;;;;;0.65;0.35;;;7.10;99.90;;;;;;5079611;28;20490;-76
2023/12/26 15:19:13;;;;;;;6.43;0.85;;;7.10;99.90;;;;;;5081023;28;20097;-76
2023/12/26 15:21:44;;;;;;;0.20;0.20;;;7.00;99.90;;;;;;5082976;28;21152;-76
2023/12/26 15:24:13;;;;;;;5.00;0.52;;;6.90;99.90;;;;;;5078798;28;20387;-76
2023/12/26 15:26:39;;;;;;;4.85;0.68;;;6.80;99.90;;;;;;5076028;28;20051;-76
2023/12/26 15:29:05;;;;;;;3.53;0.85;;;6.80;99.90;;;;;;5083931;28;20146;-76
2023/12/26 15:31:34;;;;;;;2.40;0.50;;;6.70;99.90;;;;;;5083999;28;20386;-76
2023/12/26 15:34:01;;;;;;;10.30;0.55;;;6.70;99.90;;;;;;5077900;28;20042;-77
2023/12/26 15:36:27;;;;;;;2.00;0.30;;;6.70;99.90;;;;;;5083836;28;20043;-77
2023/12/26 15:38:54;;;;;;;0.38;0.30;;;6.70;99.90;;;;;;5069098;28;20036;-77
2023/12/26 15:41:21;;;;;;;3.15;0.43;;;6.70;99.90;;;;;;5061678;28;20036;-78
2023/12/26 15:43:47;;;;;;;4.07;0.70;;;6.70;99.90;;;;;;5076902;28;20032;-77
2023/12/26 15:46:20;;;;;;;0.68;0.43;;;6.70;99.90;;;;;;5063799;28;20043;-78